Time;durP1;ratioP1;P1;durP2;ratioP2;P2;SDS_P1;SDS_P2;PMS_P1;PMS_P2;Temp;Humidity;BMP_temperature;BMP_pressure;BME280_temperature;BME280_humidity;BME280_pressure;Samples;Min_cycle;Max_cycle;Signal;HPM_P1;HPM_P2
2021/12/15 00:00:51;;;;;;;34.00;19.75;;;;;;;;;;5035732;28;20468;-57
2021/12/15 00:03:19;;;;;;;45.95;20.60;;;;;;;;;;5055052;28;20029;-58
2021/12/15 00:05:46;;;;;;;33.35;22.52;;;;;;;;;;5054654;28;20025;-57
2021/12/15 00:08:12;;;;;;;36.95;21.67;;;;;;;;;;5054514;28;20040;-58
2021/12/15 00:10:39;;;;;;;36.38;22.05;;;;;;;;;;5055125;28;20024;-56
2021/12/15 00:13:05;;;;;;;30.50;19.92;;;;;;;;;;5055121;28;20017;-57
2021/12/15 00:15:31;;;;;;;34.97;20.10;;;;;;;;;;5054828;28;20029;-56
2021/12/15 00:17:58;;;;;;;37.45;21.23;;;;;;;;;;5054003;28;20082;-57
2021/12/15 00:20:25;;;;;;;37.80;19.92;;;;;;;;;;5054510;28;20039;-57
2021/12/15 00:22:52;;;;;;;34.03;20.95;;;;;;;;;;5054815;28;20413;-55
2021/12/15 00:25:18;;;;;;;34.30;21.02;;;;;;;;;;5054814;28;20502;-57
2021/12/15 00:27:44;;;;;;;37.90;21.35;;;;;;;;;;5054435;28;20040;-57
2021/12/15 00:30:10;;;;;;;41.55;20.17;;;;;;;;;;5054321;28;20021;-56
2021/12/15 00:32:36;;;;;;;35.83;21.25;;;;;;;;;;5054897;28;20358;-57
2021/12/15 00:35:03;;;;;;;26.77;19.20;;;;;;;;;;5054329;28;20044;-57
2021/12/15 00:37:29;;;;;;;33.95;19.73;;;;;;;;;;5054432;28;20390;-58
2021/12/15 00:39:55;;;;;;;31.83;20.17;;;;;;;;;;5053765;28;20384;-55
2021/12/15 00:42:21;;;;;;;35.38;20.48;;;;;;;;;;5054308;28;20036;-57
2021/12/15 00:44:47;;;;;;;26.15;18.23;;;;;;;;;;5054430;28;20033;-55
2021/12/15 00:47:13;;;;;;;36.88;22.17;;;;;;;;;;5053904;28;20370;-56
2021/12/15 00:49:40;;;;;;;29.13;19.08;;;;;;;;;;5053643;28;20121;-57
2021/12/15 00:52:06;;;;;;;29.80;19.77;;;;;;;;;;5054446;28;20021;-57
2021/12/15 00:54:33;;;;;;;34.88;19.52;;;;;;;;;;5054209;28;20382;-56
2021/12/15 00:57:00;;;;;;;32.92;20.98;;;;;;;;;;5053950;28;20033;-57
2021/12/15 00:59:26;;;;;;;36.83;20.00;;;;;;;;;;5053390;28;20486;-58
2021/12/15 01:01:52;;;;;;;38.63;22.27;;;;;;;;;;5044853;28;20030;-57
2021/12/15 01:04:19;;;;;;;34.22;19.25;;;;;;;;;;5034013;28;20029;-55
2021/12/15 01:06:48;;;;;;;36.30;21.60;;;;;;;;;;5034057;28;20083;-56
2021/12/15 01:09:17;;;;;;;30.63;20.38;;;;;;;;;;5032614;28;20116;-57
2021/12/15 01:19:54;;;;;;;30.23;21.77;;;;;;;;;;5032954;28;20120;-57
2021/12/15 01:22:24;;;;;;;32.10;19.23;;;;;;;;;;5033733;28;20033;-55
2021/12/15 01:24:51;;;;;;;34.00;19.48;;;;;;;;;;5033571;28;20116;-57
2021/12/15 01:27:17;;;;;;;15.82;10.48;;;;;;;;;;5033655;28;20064;-56
2021/12/15 01:29:43;;;;;;;28.50;19.90;;;;;;;;;;5033172;28;20060;-56
2021/12/15 01:32:09;;;;;;;35.33;22.13;;;;;;;;;;5033667;28;20029;-56
2021/12/15 01:34:35;;;;;;;33.13;23.38;;;;;;;;;;5033422;28;20440;-54
2021/12/15 01:37:01;;;;;;;36.80;22.38;;;;;;;;;;5033303;28;20057;-55
2021/12/15 01:39:27;;;;;;;40.70;22.48;;;;;;;;;;5032512;28;20051;-57
2021/12/15 01:41:55;;;;;;;34.03;21.75;;;;;;;;;;5033577;28;20029;-57
2021/12/15 01:46:57;;;;;;;43.72;22.48;;;;;;;;;;5033326;28;20361;-57
2021/12/15 01:49:31;;;;;;;42.80;20.92;;;;;;;;;;5032682;28;20025;-57
2021/12/15 01:52:00;;;;;;;42.72;24.48;;;;;;;;;;5032881;28;20456;-57
2021/12/15 01:54:27;;;;;;;48.85;24.30;;;;;;;;;;5033293;28;20025;-57
2021/12/15 01:56:53;;;;;;;50.08;22.25;;;;;;;;;;5033101;28;20025;-56
2021/12/15 01:59:21;;;;;;;32.35;19.83;;;;;;;;;;5032508;28;20109;-57
2021/12/15 02:01:47;;;;;;;53.72;23.67;;;;;;;;;;5040806;28;20067;-57
2021/12/15 02:04:16;;;;;;;29.02;18.20;;;;;;;;;;5052836;28;20021;-55
2021/12/15 02:06:44;;;;;;;38.63;18.42;;;;;;;;;;5052841;28;20301;-53
2021/12/15 02:09:11;;;;;;;42.90;18.08;;;;;;;;;;5052207;28;20379;-57
2021/12/15 02:11:37;;;;;;;34.38;19.63;;;;;;;;;;5052876;28;20040;-57
2021/12/15 02:14:03;;;;;;;20.90;14.85;;;;;;;;;;5052780;28;20025;-53
2021/12/15 02:16:29;;;;;;;30.15;16.70;;;;;;;;;;5052661;28;20117;-57
2021/12/15 02:18:55;;;;;;;25.77;16.33;;;;;;;;;;5051887;28;20490;-56
2021/12/15 02:21:24;;;;;;;23.00;16.63;;;;;;;;;;5051589;28;20386;-55
2021/12/15 02:23:54;;;;;;;21.50;13.73;;;;;;;;;;5052621;28;20575;-57
2021/12/15 02:26:22;;;;;;;21.73;14.00;;;;;;;;;;5052534;28;20087;-57
2021/12/15 02:28:50;;;;;;;23.40;13.57;;;;;;;;;;5051781;28;20360;-57
2021/12/15 02:31:37;;;;;;;20.70;14.32;;;;;;;;;;5052332;28;20029;-56
2021/12/15 02:39:15;;;;;;;18.95;11.52;;;;;;;;;;5051582;28;20104;-54
2021/12/15 02:41:41;;;;;;;17.42;10.95;;;;;;;;;;5052078;28;20469;-57
2021/12/15 02:44:09;;;;;;;16.42;11.13;;;;;;;;;;5052111;28;20332;-52
2021/12/15 02:46:36;;;;;;;17.13;10.80;;;;;;;;;;5052009;28;20435;-55
2021/12/15 02:49:03;;;;;;;13.25;10.18;;;;;;;;;;5051376;28;20028;-54
2021/12/15 02:51:29;;;;;;;21.05;12.43;;;;;;;;;;5052153;28;20025;-57
2021/12/15 02:54:00;;;;;;;15.02;12.30;;;;;;;;;;5052010;28;20037;-56
2021/12/15 02:56:27;;;;;;;18.13;12.35;;;;;;;;;;5051995;28;20125;-56
2021/12/15 02:58:59;;;;;;;14.32;10.80;;;;;;;;;;5051500;28;20039;-58
2021/12/15 03:01:41;;;;;;;18.02;12.55;;;;;;;;;;5046991;28;20052;-54
2021/12/15 03:04:28;;;;;;;18.33;13.60;;;;;;;;;;5032092;28;20112;-57
2021/12/15 03:07:00;;;;;;;20.48;14.68;;;;;;;;;;5031687;28;20108;-57
2021/12/15 03:17:28;;;;;;;18.80;13.68;;;;;;;;;;5032050;28;20037;-55
2021/12/15 03:19:54;;;;;;;21.92;14.20;;;;;;;;;;5031453;28;20029;-57
2021/12/15 03:22:20;;;;;;;16.38;11.38;;;;;;;;;;5031846;28;20022;-54
2021/12/15 03:24:46;;;;;;;13.75;7.53;;;;;;;;;;5031918;28;20018;-57
2021/12/15 03:27:18;;;;;;;7.97;5.90;;;;;;;;;;5031968;28;20053;-54
2021/12/15 03:35:47;;;;;;;11.70;8.60;;;;;;;;;;5036246;28;20172;-54
2021/12/15 03:38:13;;;;;;;11.05;8.95;;;;;;;;;;5034689;28;20033;-55
2021/12/15 03:40:41;;;;;;;15.30;9.40;;;;;;;;;;5035902;28;20041;-56
2021/12/15 03:43:12;;;;;;;12.73;7.97;;;;;;;;;;5035603;28;20033;-56
2021/12/15 03:45:44;;;;;;;12.23;8.82;;;;;;;;;;5035691;28;20111;-56
2021/12/15 03:48:13;;;;;;;9.13;8.07;;;;;;;;;;5034712;28;20467;-55
2021/12/15 03:50:42;;;;;;;13.35;9.73;;;;;;;;;;5035296;28;20029;-52
2021/12/15 03:53:09;;;;;;;14.73;10.50;;;;;;;;;;5035402;28;20100;-55
2021/12/15 03:55:36;;;;;;;16.70;11.10;;;;;;;;;;5035488;28;20470;-56
2021/12/15 03:58:06;;;;;;;19.58;11.02;;;;;;;;;;5034584;28;20611;-57
2021/12/15 04:00:32;;;;;;;18.33;11.23;;;;;;;;;;5035310;28;20383;-54
2021/12/15 04:02:59;;;;;;;13.32;9.43;;;;;;;;;;5053062;28;20021;-57
2021/12/15 04:05:26;;;;;;;12.35;8.88;;;;;;;;;;5055011;28;20352;-57
2021/12/15 04:07:52;;;;;;;7.05;5.55;;;;;;;;;;5054545;28;20131;-57
2021/12/15 04:10:20;;;;;;;10.98;8.10;;;;;;;;;;5055032;28;20033;-57
2021/12/15 04:12:46;;;;;;;15.13;11.30;;;;;;;;;;5055114;28;20060;-57
2021/12/15 04:17:52;;;;;;;16.40;13.40;;;;;;;;;;5054388;28;20091;-57
2021/12/15 04:20:20;;;;;;;16.60;12.57;;;;;;;;;;5054974;28;20104;-57
2021/12/15 04:22:46;;;;;;;18.52;12.45;;;;;;;;;;5055015;28;20028;-57
2021/12/15 04:25:14;;;;;;;19.73;13.13;;;;;;;;;;5054532;28;20032;-57
2021/12/15 04:27:41;;;;;;;17.45;13.60;;;;;;;;;;5054575;28;20052;-57
2021/12/15 04:30:08;;;;;;;22.25;14.30;;;;;;;;;;5053862;28;20029;-58
2021/12/15 04:32:37;;;;;;;17.27;13.40;;;;;;;;;;5043027;28;20466;-56
2021/12/15 04:35:03;;;;;;;17.20;12.35;;;;;;;;;;5040089;28;20040;-53
2021/12/15 04:37:29;;;;;;;16.42;11.60;;;;;;;;;;5051248;28;20045;-57
2021/12/15 04:39:55;;;;;;;21.67;14.50;;;;;;;;;;5044993;28;20041;-56
2021/12/15 04:42:23;;;;;;;14.32;10.43;;;;;;;;;;5037983;28;20079;-56
2021/12/15 04:44:52;;;;;;;16.10;11.00;;;;;;;;;;5032883;28;20067;-55
2021/12/15 04:47:18;;;;;;;13.77;11.63;;;;;;;;;;5052721;28;20049;-58
2021/12/15 04:49:50;;;;;;;15.55;11.60;;;;;;;;;;5052775;28;20064;-56
2021/12/15 04:52:17;;;;;;;13.50;10.52;;;;;;;;;;5053369;28;20029;-56
2021/12/15 04:54:44;;;;;;;13.70;10.88;;;;;;;;;;5042084;28;20077;-55
2021/12/15 04:57:10;;;;;;;11.40;9.77;;;;;;;;;;5050758;28;20017;-56
2021/12/15 04:59:37;;;;;;;11.45;9.13;;;;;;;;;;5045996;28;20033;-56
2021/12/15 05:02:04;;;;;;;15.55;10.48;;;;;;;;;;5042510;28;20025;-57
2021/12/15 05:04:30;;;;;;;13.20;9.43;;;;;;;;;;5039395;28;20108;-54
2021/12/15 05:06:56;;;;;;;13.32;9.90;;;;;;;;;;5038064;28;20152;-57
2021/12/15 05:09:22;;;;;;;14.15;10.00;;;;;;;;;;5038059;28;20037;-57
2021/12/15 05:11:50;;;;;;;12.75;9.73;;;;;;;;;;5051569;28;20382;-52
2021/12/15 05:14:16;;;;;;;12.32;10.82;;;;;;;;;;5033986;28;20038;-57
2021/12/15 05:16:42;;;;;;;12.98;10.68;;;;;;;;;;5049841;28;20029;-56
2021/12/15 05:19:08;;;;;;;15.05;11.68;;;;;;;;;;5041210;28;20553;-57
2021/12/15 05:21:34;;;;;;;10.52;9.23;;;;;;;;;;5034593;28;20215;-57
2021/12/15 05:24:11;;;;;;;11.50;10.32;;;;;;;;;;5039198;28;20043;-57
2021/12/15 05:26:37;;;;;;;15.20;11.88;;;;;;;;;;5037406;28;20060;-57
2021/12/15 05:29:03;;;;;;;11.13;9.43;;;;;;;;;;5051529;28;20509;-57
2021/12/15 05:31:29;;;;;;;12.93;9.60;;;;;;;;;;5046107;28;20029;-57
2021/12/15 05:33:55;;;;;;;10.70;7.70;;;;;;;;;;5043431;28;20100;-56
2021/12/15 05:36:21;;;;;;;10.60;8.32;;;;;;;;;;5039609;28;20042;-56
2021/12/15 05:38:47;;;;;;;6.32;5.22;;;;;;;;;;5040671;28;20033;-54
2021/12/15 05:41:13;;;;;;;6.60;4.88;;;;;;;;;;5050791;28;20034;-57
2021/12/15 05:43:39;;;;;;;6.57;5.13;;;;;;;;;;5034205;28;20030;-56
2021/12/15 05:46:05;;;;;;;7.82;6.40;;;;;;;;;;5033154;28;20114;-57
2021/12/15 05:48:31;;;;;;;9.30;7.03;;;;;;;;;;5048215;28;20516;-53
2021/12/15 05:50:57;;;;;;;8.00;6.57;;;;;;;;;;5037170;28;20044;-56
2021/12/15 05:53:23;;;;;;;11.55;6.07;;;;;;;;;;5043680;28;20084;-56
2021/12/15 05:55:49;;;;;;;9.27;8.23;;;;;;;;;;5048509;28;20471;-57
2021/12/15 05:58:15;;;;;;;14.90;10.07;;;;;;;;;;5038903;28;20116;-57
2021/12/15 06:00:42;;;;;;;15.90;12.13;;;;;;;;;;5040754;28;20060;-58
2021/12/15 06:03:08;;;;;;;18.45;12.43;;;;;;;;;;5048661;28;20027;-57
2021/12/15 06:05:35;;;;;;;14.88;11.85;;;;;;;;;;5037193;28;20064;-57
2021/12/15 06:08:01;;;;;;;11.88;8.77;;;;;;;;;;5035219;28;20051;-57
2021/12/15 06:10:28;;;;;;;11.63;10.02;;;;;;;;;;5050797;28;20033;-57
2021/12/15 06:12:55;;;;;;;13.50;10.50;;;;;;;;;;5049165;28;20111;-55
2021/12/15 06:15:23;;;;;;;18.42;13.38;;;;;;;;;;5043283;28;20029;-57
2021/12/15 06:17:53;;;;;;;12.95;11.57;;;;;;;;;;5033432;28;20037;-56
2021/12/15 06:20:20;;;;;;;15.82;12.30;;;;;;;;;;5034490;28;20102;-55
2021/12/15 06:22:47;;;;;;;15.52;12.65;;;;;;;;;;5033937;28;20451;-54
2021/12/15 06:25:13;;;;;;;18.50;13.82;;;;;;;;;;5040121;28;20064;-54
2021/12/15 06:27:40;;;;;;;22.60;15.43;;;;;;;;;;5052261;28;20040;-57
2021/12/15 06:30:07;;;;;;;19.20;13.88;;;;;;;;;;5051684;28;20490;-54
2021/12/15 06:32:33;;;;;;;19.05;14.70;;;;;;;;;;5052409;28;20104;-57
2021/12/15 06:34:59;;;;;;;18.83;14.60;;;;;;;;;;5049866;28;20379;-55
2021/12/15 06:37:25;;;;;;;17.30;13.20;;;;;;;;;;5043790;28;20390;-56
2021/12/15 06:39:51;;;;;;;20.27;15.15;;;;;;;;;;5040445;28;20025;-53
2021/12/15 06:42:17;;;;;;;24.02;13.75;;;;;;;;;;5038856;28;20375;-56
2021/12/15 06:44:43;;;;;;;21.33;14.05;;;;;;;;;;5047369;28;20158;-56
2021/12/15 07:00:29;;;;;;;16.73;13.55;;;;;;;;;;5044255;28;20041;-57
2021/12/15 07:02:55;;;;;;;18.67;15.27;;;;;;;;;;5039354;28;20101;-57
2021/12/15 07:05:22;;;;;;;17.33;14.18;;;;;;;;;;5034118;28;20133;-57
2021/12/15 07:07:48;;;;;;;18.02;13.80;;;;;;;;;;5040481;28;20079;-58
2021/12/15 07:10:17;;;;;;;19.80;14.20;;;;;;;;;;5045747;28;20463;-56
2021/12/15 07:12:43;;;;;;;18.50;13.02;;;;;;;;;;5050643;28;20116;-56
2021/12/15 07:15:10;;;;;;;18.20;14.23;;;;;;;;;;5043444;28;21814;-57
2021/12/15 07:17:39;;;;;;;16.02;13.75;;;;;;;;;;5048838;28;20268;-56
2021/12/15 07:20:28;;;;;;;17.23;14.00;;;;;;;;;;5042428;28;20025;-55
2021/12/15 07:22:52;;;;;;;16.38;12.43;;;;;;;;;;5053323;28;20041;-55
2021/12/15 07:25:18;;;;;;;13.80;11.40;;;;;;;;;;5040052;28;20025;-57
2021/12/15 07:27:44;;;;;;;16.88;12.38;;;;;;;;;;5043516;28;20029;-55
2021/12/15 07:30:11;;;;;;;15.77;10.98;;;;;;;;;;5053270;28;20383;-57
2021/12/15 07:32:37;;;;;;;15.60;12.52;;;;;;;;;;5049046;28;20140;-55
2021/12/15 07:35:04;;;;;;;16.13;11.27;;;;;;;;;;5040043;28;20119;-56
2021/12/15 07:37:32;;;;;;;14.40;11.50;;;;;;;;;;5045737;28;20076;-56
2021/12/15 07:39:59;;;;;;;17.10;12.43;;;;;;;;;;5053538;28;20086;-57
2021/12/15 07:42:42;;;;;;;18.23;11.57;;;;;;;;;;5044471;28;20037;-56
2021/12/15 07:45:08;;;;;;;16.83;12.20;;;;;;;;;;5042579;28;20360;-57
2021/12/15 07:47:34;;;;;;;14.02;10.88;;;;;;;;;;5047562;28;20039;-55
2021/12/15 07:50:02;;;;;;;16.05;10.82;;;;;;;;;;5044565;28;20035;-57
2021/12/15 07:52:28;;;;;;;13.40;8.45;;;;;;;;;;5049917;28;20047;-55
2021/12/15 07:54:55;;;;;;;13.75;9.82;;;;;;;;;;5053153;28;20068;-57
2021/12/15 07:57:22;;;;;;;12.07;9.18;;;;;;;;;;5045707;28;20086;-56
2021/12/15 07:59:49;;;;;;;11.90;9.15;;;;;;;;;;5042458;28;20041;-52
2021/12/15 08:02:15;;;;;;;10.45;8.88;;;;;;;;;;5044987;28;20037;-55
2021/12/15 08:04:42;;;;;;;10.18;8.13;;;;;;;;;;5046268;28;20508;-57
2021/12/15 08:07:08;;;;;;;12.48;9.90;;;;;;;;;;5044316;28;20036;-57
2021/12/15 08:09:34;;;;;;;11.88;7.18;;;;;;;;;;5051146;28;20470;-55
2021/12/15 08:12:00;;;;;;;8.98;7.40;;;;;;;;;;5053801;28;20025;-56
2021/12/15 08:14:26;;;;;;;8.88;7.55;;;;;;;;;;5054358;28;20519;-54
2021/12/15 08:16:52;;;;;;;10.60;7.28;;;;;;;;;;5042580;28;20463;-55
2021/12/15 08:19:19;;;;;;;9.93;6.97;;;;;;;;;;5042252;28;20039;-56
2021/12/15 08:21:45;;;;;;;8.85;6.78;;;;;;;;;;5039338;28;20036;-56
2021/12/15 08:24:11;;;;;;;12.30;7.15;;;;;;;;;;5038089;28;20026;-56
2021/12/15 08:26:37;;;;;;;7.93;6.95;;;;;;;;;;5039705;28;20044;-54
2021/12/15 08:29:03;;;;;;;9.88;7.47;;;;;;;;;;5035399;28;20029;-56
2021/12/15 08:31:29;;;;;;;10.98;7.28;;;;;;;;;;5036037;28;20107;-54
2021/12/15 08:33:55;;;;;;;6.95;6.15;;;;;;;;;;5045001;28;20080;-57
2021/12/15 08:36:21;;;;;;;10.80;7.78;;;;;;;;;;5034999;28;20037;-57
2021/12/15 08:38:48;;;;;;;7.20;5.47;;;;;;;;;;5041678;28;20041;-57
2021/12/15 08:41:17;;;;;;;10.55;6.72;;;;;;;;;;5042802;28;20239;-56
2021/12/15 08:43:43;;;;;;;7.72;6.85;;;;;;;;;;5042529;28;20474;-56
2021/12/15 08:46:20;;;;;;;9.55;6.95;;;;;;;;;;5048070;28;20033;-57
2021/12/15 08:48:47;;;;;;;9.30;6.57;;;;;;;;;;5039093;28;20071;-55
2021/12/15 08:51:14;;;;;;;8.13;6.43;;;;;;;;;;5037966;28;20557;-55
2021/12/15 08:53:41;;;;;;;9.40;7.32;;;;;;;;;;5037022;28;20456;-51
2021/12/15 08:56:08;;;;;;;7.95;6.00;;;;;;;;;;5035064;28;20026;-55
2021/12/15 08:58:34;;;;;;;8.60;6.65;;;;;;;;;;5043508;28;20079;-57
2021/12/15 09:01:01;;;;;;;7.10;5.85;;;;;;;;;;5040974;28;20132;-57
2021/12/15 09:03:27;;;;;;;8.52;6.75;;;;;;;;;;5034042;28;20117;-56
2021/12/15 09:05:54;;;;;;;8.05;5.95;;;;;;;;;;5038058;28;20429;-52
2021/12/15 09:08:21;;;;;;;10.35;5.72;;;;;;;;;;5042826;28;20043;-56
2021/12/15 09:10:47;;;;;;;8.90;6.68;;;;;;;;;;5042530;28;20032;-54
2021/12/15 09:13:14;;;;;;;7.63;5.57;;;;;;;;;;5045757;28;20406;-56
2021/12/15 09:15:41;;;;;;;7.85;6.53;;;;;;;;;;5038678;28;20056;-55
2021/12/15 09:18:08;;;;;;;10.27;6.30;;;;;;;;;;5051972;28;20037;-55
2021/12/15 09:20:35;;;;;;;6.63;5.95;;;;;;;;;;5042095;28;20128;-52
2021/12/15 09:23:03;;;;;;;10.25;6.63;;;;;;;;;;5033929;28;20029;-55
2021/12/15 09:25:30;;;;;;;10.50;6.68;;;;;;;;;;5039718;28;20453;-58
2021/12/15 09:27:59;;;;;;;7.78;5.93;;;;;;;;;;5040609;28;20030;-56
2021/12/15 09:30:26;;;;;;;9.80;7.00;;;;;;;;;;5044093;28;20025;-55
2021/12/15 09:32:52;;;;;;;6.93;6.20;;;;;;;;;;5039287;28;20420;-56
2021/12/15 09:35:19;;;;;;;9.48;5.70;;;;;;;;;;5041541;28;20139;-57
2021/12/15 09:37:45;;;;;;;10.63;6.22;;;;;;;;;;5043061;28;20037;-56
2021/12/15 09:40:12;;;;;;;9.68;6.20;;;;;;;;;;5039400;28;20052;-57
2021/12/15 09:42:40;;;;;;;9.85;5.70;;;;;;;;;;5036679;28;20044;-57
2021/12/15 09:56:23;;;;;;;10.45;6.57;;;;;;;;;;5029901;28;20048;-57
2021/12/15 10:11:48;;;;;;;7.65;5.53;;;;;;;;;;5045229;28;20402;-55
2021/12/15 10:19:48;;;;;;;9.55;7.47;;;;;;;;;;5042381;28;20753;-57
2021/12/15 10:22:15;;;;;;;7.93;5.85;;;;;;;;;;5035129;28;20459;-56
2021/12/15 10:24:47;;;;;;;7.53;6.28;;;;;;;;;;5037356;28;20364;-55
2021/12/15 10:27:32;;;;;;;9.57;7.13;;;;;;;;;;5040030;28;20032;-57
2021/12/15 10:30:23;;;;;;;6.80;5.10;;;;;;;;;;5038330;28;20029;-52
2021/12/15 10:32:51;;;;;;;6.80;5.35;;;;;;;;;;5023733;28;20098;-57
2021/12/15 10:35:19;;;;;;;6.45;4.20;;;;;;;;;;5018695;28;20037;-56
2021/12/15 10:38:06;;;;;;;9.07;5.75;;;;;;;;;;5016605;28;20156;-53
2021/12/15 10:40:32;;;;;;;12.95;6.40;;;;;;;;;;5023395;28;20067;-55
2021/12/15 10:43:02;;;;;;;9.55;6.65;;;;;;;;;;5028041;28;20026;-56
2021/12/15 10:45:34;;;;;;;6.70;4.93;;;;;;;;;;5042677;28;20483;-57
2021/12/15 10:48:01;;;;;;;7.00;4.32;;;;;;;;;;5032561;28;20116;-52
2021/12/15 10:50:27;;;;;;;7.63;5.35;;;;;;;;;;5037227;28;20029;-55
2021/12/15 10:52:59;;;;;;;6.22;4.50;;;;;;;;;;5041225;28;20039;-54
2021/12/15 10:55:28;;;;;;;6.68;4.55;;;;;;;;;;5037553;28;20024;-55
2021/12/15 10:57:55;;;;;;;6.03;4.27;;;;;;;;;;5035813;28;20055;-55
2021/12/15 11:00:22;;;;;;;5.00;3.63;;;;;;;;;;5037732;28;20037;-54
2021/12/15 11:02:48;;;;;;;8.40;4.38;;;;;;;;;;5047910;28;20382;-55
2021/12/15 11:05:18;;;;;;;9.25;5.07;;;;;;;;;;5051976;28;20092;-57
2021/12/15 11:07:49;;;;;;;7.75;4.05;;;;;;;;;;5051804;28;20036;-53
2021/12/15 11:10:20;;;;;;;6.68;4.53;;;;;;;;;;5051607;28;20398;-54
2021/12/15 11:12:49;;;;;;;6.50;4.40;;;;;;;;;;5041159;28;20021;-54
2021/12/15 11:15:23;;;;;;;6.13;4.00;;;;;;;;;;5049661;28;20053;-57
2021/12/15 11:17:50;;;;;;;8.05;4.47;;;;;;;;;;5035576;28;20029;-57
2021/12/15 11:20:24;;;;;;;5.03;4.35;;;;;;;;;;5040889;28;20037;-57
2021/12/15 11:22:50;;;;;;;5.95;4.53;;;;;;;;;;5032003;28;20383;-57
2021/12/15 11:25:35;;;;;;;6.10;3.55;;;;;;;;;;5035641;28;20029;-56
2021/12/15 11:28:03;;;;;;;8.48;4.10;;;;;;;;;;5050907;28;20411;-56
2021/12/15 11:30:49;;;;;;;6.95;4.30;;;;;;;;;;5045892;28;20036;-57
2021/12/15 11:33:15;;;;;;;8.13;4.95;;;;;;;;;;5049769;28;20037;-54
2021/12/15 11:35:45;;;;;;;7.82;5.97;;;;;;;;;;5053488;28;20482;-55
2021/12/15 11:38:13;;;;;;;8.18;6.47;;;;;;;;;;5047401;28;20025;-54
2021/12/15 11:40:45;;;;;;;7.45;5.20;;;;;;;;;;5031723;28;20101;-57
2021/12/15 11:43:26;;;;;;;10.35;6.10;;;;;;;;;;5032174;28;20091;-55
2021/12/15 11:45:52;;;;;;;9.57;7.20;;;;;;;;;;5033120;28;20396;-57
2021/12/15 11:48:29;;;;;;;9.60;6.90;;;;;;;;;;5050196;28;20029;-55
2021/12/15 11:50:59;;;;;;;10.93;7.45;;;;;;;;;;5044400;28;20023;-54
2021/12/15 11:53:31;;;;;;;8.73;7.05;;;;;;;;;;5053709;28;20075;-57
2021/12/15 11:56:36;;;;;;;9.70;7.68;;;;;;;;;;5054933;28;20021;-56
2021/12/15 11:59:14;;;;;;;10.55;6.85;;;;;;;;;;5041196;28;20036;-56
2021/12/15 12:01:42;;;;;;;9.85;7.72;;;;;;;;;;5024566;28;20611;-57
2021/12/15 12:04:09;;;;;;;9.27;6.95;;;;;;;;;;5027628;28;20127;-54
2021/12/15 12:06:35;;;;;;;7.05;6.35;;;;;;;;;;5049126;28;20117;-57
2021/12/15 12:09:01;;;;;;;9.30;7.43;;;;;;;;;;5033810;28;20041;-54
2021/12/15 12:11:29;;;;;;;9.68;7.75;;;;;;;;;;5035086;28;20025;-57
2021/12/15 12:13:59;;;;;;;8.75;6.90;;;;;;;;;;5046882;28;20048;-56
2021/12/15 12:16:25;;;;;;;10.43;6.85;;;;;;;;;;5054594;28;20033;-54
2021/12/15 12:18:52;;;;;;;9.20;8.23;;;;;;;;;;5058312;28;20032;-56
2021/12/15 12:21:18;;;;;;;9.05;7.65;;;;;;;;;;5047752;28;20494;-56
2021/12/15 12:23:49;;;;;;;7.45;6.57;;;;;;;;;;5043516;28;20109;-56
2021/12/15 12:26:16;;;;;;;8.30;6.95;;;;;;;;;;5054598;28;20021;-55
2021/12/15 12:28:43;;;;;;;9.52;7.47;;;;;;;;;;5054135;28;20029;-52
2021/12/15 12:31:11;;;;;;;6.72;5.75;;;;;;;;;;5054459;28;20025;-55
2021/12/15 12:33:38;;;;;;;10.63;6.78;;;;;;;;;;5045837;28;20033;-56
2021/12/15 12:36:08;;;;;;;11.82;7.03;;;;;;;;;;5054180;28;20036;-57
2021/12/15 12:38:34;;;;;;;;;;;;;;;;;;5038387;28;20041;-52
2021/12/15 12:41:11;;;;;;;9.27;7.30;;;;;;;;;;5034766;28;20282;-56
2021/12/15 12:43:38;;;;;;;9.30;7.75;;;;;;;;;;5043587;28;20033;-52
2021/12/15 12:46:09;;;;;;;7.10;6.40;;;;;;;;;;5053419;28;20037;-50
2021/12/15 12:59:57;;;;;;;7.25;5.82;;;;;;;;;;5033214;28;20083;-56
2021/12/15 13:02:30;;;;;;;9.10;7.10;;;;;;;;;;5040176;28;20438;-57
2021/12/15 13:04:56;;;;;;;6.72;5.97;;;;;;;;;;5052670;28;20416;-55
2021/12/15 13:07:58;;;;;;;8.43;6.70;;;;;;;;;;5042069;28;20083;-56
2021/12/15 13:10:43;;;;;;;9.18;5.97;;;;;;;;;;5011013;28;20038;-55
2021/12/15 13:13:13;;;;;;;7.72;6.93;;;;;;;;;;5032040;28;20029;-56
2021/12/15 13:15:39;;;;;;;8.48;6.68;;;;;;;;;;5033570;28;20387;-56
2021/12/15 13:18:11;;;;;;;8.15;6.63;;;;;;;;;;5047239;28;20147;-56
2021/12/15 13:20:38;;;;;;;7.45;6.35;;;;;;;;;;5053365;28;20036;-53
2021/12/15 13:23:40;;;;;;;7.30;6.35;;;;;;;;;;5053341;28;20478;-54
2021/12/15 13:28:45;;;;;;;7.30;6.57;;;;;;;;;;5049929;28;20120;-54
2021/12/15 13:31:15;;;;;;;7.47;5.82;;;;;;;;;;5053081;28;20045;-54
2021/12/15 13:33:44;;;;;;;6.97;5.97;;;;;;;;;;5053297;28;20025;-56
2021/12/15 13:36:11;;;;;;;7.90;6.38;;;;;;;;;;5053019;28;20075;-55
2021/12/15 13:38:39;;;;;;;9.27;6.78;;;;;;;;;;5061593;28;20033;-52
2021/12/15 13:41:19;;;;;;;7.35;6.55;;;;;;;;;;5060531;28;20541;-55
2021/12/15 13:43:52;;;;;;;8.68;6.35;;;;;;;;;;5033237;28;20056;-53
2021/12/15 13:46:31;;;;;;;7.43;6.63;;;;;;;;;;5042540;28;20021;-55
2021/12/15 13:48:59;;;;;;;7.10;5.82;;;;;;;;;;5040297;28;20440;-53
2021/12/15 13:51:44;;;;;;;7.95;5.25;;;;;;;;;;5052341;28;20025;-57
2021/12/15 13:54:20;;;;;;;6.03;5.38;;;;;;;;;;5049821;28;20497;-57
2021/12/15 13:56:54;;;;;;;8.35;6.40;;;;;;;;;;5032943;28;20035;-56
2021/12/15 13:59:29;;;;;;;6.63;5.93;;;;;;;;;;5045710;28;20048;-53
2021/12/15 14:02:14;;;;;;;6.88;5.43;;;;;;;;;;5043137;28;20069;-53
2021/12/15 14:04:48;;;;;;;6.97;6.13;;;;;;;;;;5034783;28;20044;-57
2021/12/15 14:07:29;;;;;;;7.57;6.75;;;;;;;;;;5048300;28;20021;-57
2021/12/15 14:09:56;;;;;;;8.70;6.35;;;;;;;;;;5052113;28;20433;-55
2021/12/15 14:12:41;;;;;;;7.07;6.00;;;;;;;;;;5052742;28;20111;-55
2021/12/15 14:15:06;;;;;;;7.75;6.57;;;;;;;;;;5047522;28;20115;-54
2021/12/15 14:17:32;;;;;;;9.55;6.90;;;;;;;;;;5052248;28;20053;-53
2021/12/15 14:19:58;;;;;;;7.18;6.25;;;;;;;;;;5041085;28;20324;-52
2021/12/15 14:22:24;;;;;;;8.30;6.93;;;;;;;;;;5032395;28;20034;-55
2021/12/15 14:24:54;;;;;;;10.88;7.80;;;;;;;;;;5032764;28;20368;-53
2021/12/15 14:27:21;;;;;;;9.23;7.40;;;;;;;;;;5032704;28;20037;-53
2021/12/15 14:29:47;;;;;;;8.00;6.60;;;;;;;;;;5031742;28;20124;-53
2021/12/15 14:32:13;;;;;;;9.45;7.18;;;;;;;;;;5031986;28;20056;-53
2021/12/15 14:34:42;;;;;;;6.65;5.20;;;;;;;;;;5037591;28;20033;-50
2021/12/15 14:37:09;;;;;;;8.10;6.50;;;;;;;;;;5045858;28;20040;-55
2021/12/15 14:39:37;;;;;;;8.80;6.78;;;;;;;;;;5051650;28;20082;-53
2021/12/15 14:42:08;;;;;;;6.10;4.88;;;;;;;;;;5052197;28;20039;-54
2021/12/15 14:44:38;;;;;;;7.63;6.88;;;;;;;;;;5046760;28;20029;-56
2021/12/15 14:47:07;;;;;;;11.13;6.95;;;;;;;;;;5041130;28;20029;-55
2021/12/15 14:49:37;;;;;;;6.88;6.07;;;;;;;;;;5051585;28;20040;-51
2021/12/15 14:52:05;;;;;;;9.75;6.93;;;;;;;;;;5052013;28;20071;-53
2021/12/15 14:54:32;;;;;;;9.25;6.40;;;;;;;;;;5036385;28;20053;-54
2021/12/15 14:57:12;;;;;;;6.30;5.32;;;;;;;;;;5032403;28;20021;-51
2021/12/15 14:59:43;;;;;;;6.45;5.65;;;;;;;;;;5031552;28;20037;-50
2021/12/15 15:02:11;;;;;;;7.63;6.15;;;;;;;;;;5043326;28;20082;-51
2021/12/15 15:04:42;;;;;;;8.23;6.15;;;;;;;;;;5048852;28;20110;-53
2021/12/15 15:07:10;;;;;;;7.15;6.03;;;;;;;;;;5047903;28;20067;-50
2021/12/15 15:09:38;;;;;;;7.22;5.78;;;;;;;;;;5050085;28;20048;-51
2021/12/15 15:12:09;;;;;;;10.50;6.13;;;;;;;;;;5031467;28;20021;-53
2021/12/15 15:14:36;;;;;;;7.57;6.53;;;;;;;;;;5032007;28;20037;-52
2021/12/15 15:17:02;;;;;;;6.63;5.60;;;;;;;;;;5031907;28;20125;-53
2021/12/15 15:19:30;;;;;;;6.72;5.78;;;;;;;;;;5032109;28;20032;-52
2021/12/15 15:21:59;;;;;;;6.70;5.78;;;;;;;;;;5051078;28;20037;-55
2021/12/15 15:24:25;;;;;;;7.88;6.22;;;;;;;;;;5051319;28;20040;-55
2021/12/15 15:27:01;;;;;;;8.45;6.18;;;;;;;;;;5050089;28;20021;-55
2021/12/15 15:29:37;;;;;;;7.82;6.03;;;;;;;;;;5043991;28;20052;-53
2021/12/15 15:32:08;;;;;;;8.07;6.65;;;;;;;;;;5055675;28;20039;-53
2021/12/15 15:34:34;;;;;;;7.43;6.65;;;;;;;;;;5055715;28;20032;-54
2021/12/15 15:37:00;;;;;;;6.65;5.68;;;;;;;;;;5055408;28;20021;-54
2021/12/15 15:39:26;;;;;;;7.60;5.85;;;;;;;;;;5052526;28;20041;-55
2021/12/15 15:41:52;;;;;;;6.75;6.05;;;;;;;;;;5075247;28;20363;-54
2021/12/15 15:44:18;;;;;;;7.72;6.50;;;;;;;;;;5064894;28;20025;-53
2021/12/15 15:46:49;;;;;;;7.82;7.00;;;;;;;;;;5035538;28;20032;-54
2021/12/15 15:49:16;;;;;;;8.70;7.80;;;;;;;;;;5041397;28;20207;-55
2021/12/15 15:51:43;;;;;;;6.88;6.13;;;;;;;;;;5055146;28;20444;-54
2021/12/15 15:54:10;;;;;;;9.73;7.40;;;;;;;;;;5055423;28;20467;-55
2021/12/15 15:56:39;;;;;;;9.02;7.25;;;;;;;;;;5055255;28;20517;-53
2021/12/15 15:59:09;;;;;;;8.68;7.05;;;;;;;;;;5049598;28;20032;-54
2021/12/15 16:01:37;;;;;;;7.43;6.70;;;;;;;;;;5053703;28;20115;-54
2021/12/15 16:04:05;;;;;;;8.65;6.60;;;;;;;;;;5055547;28;20029;-51
2021/12/15 16:06:31;;;;;;;7.57;6.80;;;;;;;;;;5050645;28;20049;-53
2021/12/15 16:08:58;;;;;;;10.43;7.80;;;;;;;;;;5038939;28;20029;-54